Time;durP1;ratioP1;P1;durP2;ratioP2;P2;SDS_P1;SDS_P2;PMS_P1;PMS_P2;Temp;Humidity;BMP_temperature;BMP_pressure;BME280_temperature;BME280_humidity;BME280_pressure;Samples;Min_cycle;Max_cycle;Signal;HPM_P1;HPM_P2
2022/09/16 00:02:04;;;;;;;0.60;0.60;;;13.10;99.90;;;;;;6164370;28;20218;-68
2022/09/16 00:05:11;;;;;;;0.70;0.70;;;13.10;99.90;;;;;;6164638;28;20258;-68
2022/09/16 00:08:18;;;;;;;1.85;0.70;;;13.00;99.90;;;;;;6163875;28;20541;-68
2022/09/16 00:11:24;;;;;;;0.60;0.60;;;13.00;99.90;;;;;;6164486;28;20192;-68
2022/09/16 00:14:28;;;;;;;0.80;0.80;;;13.10;99.90;;;;;;6158937;28;20232;-68
2022/09/16 00:17:33;;;;;;;0.80;0.80;;;13.00;99.90;;;;;;6140501;29;20299;-68
2022/09/16 00:20:37;;;;;;;1.38;0.70;;;13.00;99.90;;;;;;6140839;29;20300;-68
2022/09/16 00:23:42;;;;;;;1.90;0.80;;;13.00;99.90;;;;;;6140100;29;20253;-68
2022/09/16 00:26:47;;;;;;;0.70;0.70;;;12.90;99.90;;;;;;6140606;29;20188;-68
2022/09/16 00:29:52;;;;;;;1.65;0.75;;;12.90;99.90;;;;;;6139322;29;20321;-67
2022/09/16 00:32:56;;;;;;;1.05;0.77;;;12.90;99.90;;;;;;6139928;29;20466;-68
2022/09/16 00:36:09;;;;;;;0.80;0.80;;;12.90;99.90;;;;;;6140624;29;20188;-68
2022/09/16 00:39:14;;;;;;;0.80;0.80;;;12.90;99.90;;;;;;6144987;29;20235;-68
2022/09/16 00:42:20;;;;;;;1.00;0.80;;;12.90;99.90;;;;;;6144568;29;20398;-68
2022/09/16 00:45:30;;;;;;;0.60;0.60;;;12.90;99.90;;;;;;6144881;29;20380;-68
2022/09/16 00:48:35;;;;;;;0.80;0.80;;;12.90;99.90;;;;;;6144596;29;20541;-68
2022/09/16 00:51:40;;;;;;;1.48;0.80;;;12.90;99.90;;;;;;6144813;29;20522;-68
2022/09/16 00:54:44;;;;;;;1.95;0.75;;;12.90;99.90;;;;;;6144600;29;20355;-67
2022/09/16 00:57:51;;;;;;;1.45;0.82;;;12.90;99.90;;;;;;6144285;29;20251;-68
2022/09/16 01:00:56;;;;;;;0.73;0.70;;;12.80;99.90;;;;;;6143956;29;20188;-68
2022/09/16 01:04:05;;;;;;;0.50;0.50;;;12.80;99.90;;;;;;6144542;29;20235;-67
2022/09/16 01:07:11;;;;;;;0.93;0.80;;;12.80;99.90;;;;;;6143703;29;20435;-68
2022/09/16 01:10:19;;;;;;;0.82;0.82;;;12.80;99.90;;;;;;6144209;29;20411;-67
2022/09/16 01:13:24;;;;;;;2.42;1.00;;;12.80;99.90;;;;;;6144361;29;20235;-67
2022/09/16 01:16:32;;;;;;;1.98;0.90;;;12.80;99.90;;;;;;6165711;29;20192;-67
2022/09/16 01:20:22;;;;;;;1.13;1.08;;;12.80;99.90;;;;;;6168131;28;20309;-67
2022/09/16 01:24:32;;;;;;;1.30;0.80;;;12.70;99.90;;;;;;6137682;28;20243;-67
2022/09/16 01:28:11;;;;;;;1.45;0.70;;;12.80;99.90;;;;;;6107287;28;20235;-67
2022/09/16 01:31:19;;;;;;;0.70;0.70;;;12.70;99.90;;;;;;6167692;29;20199;-67
2022/09/16 01:34:32;;;;;;;0.70;0.70;;;12.70;99.90;;;;;;6167379;28;20259;-67
2022/09/16 01:37:45;;;;;;;0.82;0.82;;;12.70;99.90;;;;;;6167123;28;20239;-67
2022/09/16 01:40:57;;;;;;;0.75;0.75;;;12.60;99.90;;;;;;6168181;29;20188;-67
2022/09/16 01:44:09;;;;;;;0.60;0.60;;;12.70;99.90;;;;;;6167168;28;20234;-67
2022/09/16 01:47:20;;;;;;;0.70;0.70;;;12.70;99.90;;;;;;6167200;28;20306;-67
2022/09/16 01:50:27;;;;;;;1.27;0.82;;;12.80;99.90;;;;;;6167154;29;20212;-68
2022/09/16 01:53:36;;;;;;;0.80;0.80;;;12.80;99.90;;;;;;6167283;28;20318;-68
2022/09/16 01:56:44;;;;;;;0.70;0.70;;;12.80;99.90;;;;;;6167214;29;20380;-68
2022/09/16 01:59:52;;;;;;;0.80;0.80;;;12.80;99.90;;;;;;6167021;28;20541;-67
2022/09/16 02:03:02;;;;;;;8.15;1.02;;;12.90;99.90;;;;;;6166694;28;20336;-67
2022/09/16 02:06:13;;;;;;;0.80;0.80;;;12.80;99.90;;;;;;6167049;29;20238;-67
2022/09/16 02:09:22;;;;;;;0.77;0.77;;;12.80;99.90;;;;;;6166929;28;20457;-67
2022/09/16 02:12:30;;;;;;;0.90;0.90;;;12.80;99.90;;;;;;6166951;28;20241;-67
2022/09/16 02:15:34;;;;;;;0.65;0.65;;;12.80;99.90;;;;;;6153186;29;20214;-67
2022/09/16 02:18:42;;;;;;;1.23;0.80;;;12.80;99.90;;;;;;6142630;29;20298;-67
2022/09/16 02:21:47;;;;;;;0.90;0.90;;;12.70;99.90;;;;;;6143112;29;20260;-67
2022/09/16 02:24:52;;;;;;;0.80;0.80;;;12.60;99.90;;;;;;6142500;29;20308;-67
2022/09/16 02:27:57;;;;;;;2.30;0.80;;;12.60;99.90;;;;;;6142727;29;20335;-68
2022/09/16 02:31:05;;;;;;;0.75;0.75;;;12.70;99.90;;;;;;6142980;29;20208;-67
2022/09/16 02:34:15;;;;;;;0.90;0.90;;;12.60;99.90;;;;;;6142507;29;20236;-67
2022/09/16 02:37:24;;;;;;;0.80;0.80;;;12.80;99.90;;;;;;6142019;29;20227;-68
2022/09/16 02:40:33;;;;;;;2.63;1.05;;;12.80;99.90;;;;;;6142851;29;20198;-68
2022/09/16 02:43:37;;;;;;;0.80;0.80;;;12.80;99.90;;;;;;6142046;29;20243;-68
2022/09/16 02:46:48;;;;;;;0.90;0.90;;;12.70;99.90;;;;;;6142236;29;20188;-67
2022/09/16 02:49:59;;;;;;;1.00;1.00;;;12.70;99.90;;;;;;6142074;29;20300;-68
2022/09/16 02:53:11;;;;;;;0.98;0.98;;;12.70;99.90;;;;;;6141903;29;20242;-68
2022/09/16 02:56:23;;;;;;;0.93;0.93;;;12.70;99.90;;;;;;6142421;29;20212;-67
2022/09/16 02:59:27;;;;;;;0.82;0.82;;;12.60;99.90;;;;;;6141872;29;20303;-68
2022/09/16 03:02:33;;;;;;;0.93;0.93;;;12.70;99.90;;;;;;6136363;28;20246;-68
2022/09/16 03:06:07;;;;;;;0.95;0.95;;;12.70;99.90;;;;;;6158901;29;20243;-67
2022/09/16 03:09:13;;;;;;;0.80;0.80;;;12.50;99.90;;;;;;6141507;29;20567;-68
2022/09/16 03:12:45;;;;;;;1.05;1.05;;;12.40;99.90;;;;;;6161729;28;20263;-67
2022/09/16 03:15:59;;;;;;;1.05;0.98;;;12.50;99.90;;;;;;6165804;29;20187;-67
2022/09/16 03:19:12;;;;;;;1.10;1.10;;;12.60;99.90;;;;;;6158956;28;20231;-67
2022/09/16 03:22:30;;;;;;;1.20;1.20;;;12.60;99.90;;;;;;6140891;29;20376;-67
2022/09/16 03:25:45;;;;;;;3.22;1.30;;;12.50;99.90;;;;;;6141812;29;20195;-67
2022/09/16 03:29:03;;;;;;;1.10;1.10;;;12.60;99.90;;;;;;6141041;29;20239;-67
2022/09/16 03:32:16;;;;;;;1.20;1.20;;;12.60;99.90;;;;;;6141230;29;20195;-67
2022/09/16 03:35:25;;;;;;;1.38;1.15;;;12.60;99.90;;;;;;6141301;29;20264;-69
2022/09/16 03:38:31;;;;;;;1.20;1.00;;;12.60;99.90;;;;;;6164957;28;20242;-68
2022/09/16 03:41:36;;;;;;;1.25;1.20;;;12.60;99.90;;;;;;6165286;29;20295;-68
2022/09/16 03:44:41;;;;;;;1.45;1.00;;;12.60;99.90;;;;;;6164511;28;20241;-68
2022/09/16 03:47:48;;;;;;;1.00;1.00;;;12.60;99.90;;;;;;6164564;28;20231;-68
2022/09/16 03:50:52;;;;;;;1.40;1.30;;;12.60;99.90;;;;;;6164961;29;20194;-68
2022/09/16 03:53:58;;;;;;;1.30;1.30;;;12.40;99.90;;;;;;6164490;28;20234;-68
2022/09/16 03:57:02;;;;;;;1.40;1.40;;;12.50;99.90;;;;;;6164456;28;20255;-68
2022/09/16 04:00:09;;;;;;;1.83;1.83;;;12.50;99.90;;;;;;6164515;29;20467;-68
2022/09/16 04:03:18;;;;;;;1.92;1.92;;;12.50;99.90;;;;;;6163821;28;20243;-68
2022/09/16 04:06:22;;;;;;;2.08;2.08;;;12.40;99.90;;;;;;6164643;29;20231;-68
2022/09/16 04:09:28;;;;;;;2.28;1.80;;;12.40;99.90;;;;;;6164225;28;20462;-68
2022/09/16 04:12:33;;;;;;;2.10;2.00;;;12.40;99.90;;;;;;6116035;29;20542;-67
2022/09/16 04:15:38;;;;;;;2.25;2.05;;;12.40;99.90;;;;;;6116867;29;20476;-68
2022/09/16 04:18:42;;;;;;;1.80;1.80;;;12.40;99.90;;;;;;6116833;29;20238;-68
2022/09/16 04:21:47;;;;;;;2.25;2.22;;;12.40;99.90;;;;;;6117154;29;20216;-68
2022/09/16 04:24:52;;;;;;;2.30;2.25;;;12.60;99.90;;;;;;6116235;29;20299;-68
2022/09/16 04:27:56;;;;;;;2.00;2.00;;;12.40;99.90;;;;;;6116810;29;20332;-68
2022/09/16 04:31:01;;;;;;;1.95;1.85;;;12.40;99.90;;;;;;6117180;29;20188;-68
2022/09/16 04:34:08;;;;;;;2.10;2.10;;;12.50;99.90;;;;;;6116619;29;20299;-68
2022/09/16 04:37:12;;;;;;;2.10;2.08;;;12.50;99.90;;;;;;6116529;29;20189;-68
2022/09/16 04:40:18;;;;;;;2.10;2.00;;;12.50;99.90;;;;;;6116985;29;20216;-68
2022/09/16 04:43:22;;;;;;;2.00;2.00;;;12.40;99.90;;;;;;6116278;29;20598;-68
2022/09/16 04:46:29;;;;;;;1.95;1.90;;;12.30;99.90;;;;;;6116957;29;20216;-68
2022/09/16 04:49:33;;;;;;;2.25;2.17;;;12.30;99.90;;;;;;6116065;29;20421;-67
2022/09/16 04:52:37;;;;;;;2.53;2.42;;;12.30;99.90;;;;;;6116561;29;20228;-68
2022/09/16 04:55:43;;;;;;;2.20;2.20;;;12.30;99.90;;;;;;6116877;29;20264;-68
2022/09/16 04:58:49;;;;;;;2.40;2.40;;;12.40;99.90;;;;;;6115966;29;20233;-67
2022/09/16 05:01:53;;;;;;;2.45;2.45;;;12.20;99.90;;;;;;6116277;29;20193;-67
2022/09/16 05:04:57;;;;;;;2.63;2.53;;;12.40;99.90;;;;;;6116140;29;20240;-67
2022/09/16 05:08:01;;;;;;;2.35;2.30;;;12.40;99.90;;;;;;6115700;29;20522;-68
2022/09/16 05:11:09;;;;;;;2.65;2.45;;;12.30;99.90;;;;;;6141507;29;20215;-67
2022/09/16 05:14:16;;;;;;;2.63;2.50;;;12.20;99.90;;;;;;6163231;28;20235;-69
2022/09/16 05:17:20;;;;;;;2.50;2.42;;;12.20;99.90;;;;;;6163432;28;20227;-67
2022/09/16 05:20:44;;;;;;;2.40;2.30;;;12.20;99.90;;;;;;6162421;29;20542;-67
2022/09/16 05:23:49;;;;;;;2.55;2.55;;;12.30;99.90;;;;;;6164256;28;20234;-67
2022/09/16 05:26:55;;;;;;;2.67;2.58;;;12.30;99.90;;;;;;6167703;28;20473;-67
2022/09/16 05:30:00;;;;;;;2.60;2.50;;;12.30;99.90;;;;;;6167910;28;20405;-67
2022/09/16 05:33:04;;;;;;;2.55;2.40;;;12.40;99.90;;;;;;6167614;28;20230;-67
2022/09/16 05:36:12;;;;;;;2.55;2.55;;;12.40;99.90;;;;;;6167477;28;20214;-68
2022/09/16 05:39:17;;;;;;;2.70;2.60;;;12.30;99.90;;;;;;6167318;28;20230;-67
2022/09/16 05:42:29;;;;;;;2.40;2.40;;;12.40;99.90;;;;;;6166967;28;20534;-67
2022/09/16 05:45:33;;;;;;;2.33;2.25;;;12.50;99.90;;;;;;6167520;29;20219;-67
2022/09/16 05:48:37;;;;;;;2.72;2.47;;;12.50;99.90;;;;;;6167113;28;20238;-67
2022/09/16 05:51:41;;;;;;;2.63;2.53;;;12.60;99.90;;;;;;6165921;29;20187;-67
2022/09/16 05:54:46;;;;;;;2.30;2.30;;;12.60;99.90;;;;;;6167089;28;20310;-68
2022/09/16 05:57:51;;;;;;;2.30;2.30;;;12.60;99.90;;;;;;6166531;28;20586;-68
2022/09/16 06:00:59;;;;;;;2.20;2.20;;;12.70;99.90;;;;;;6167274;29;20215;-68
2022/09/16 06:04:06;;;;;;;2.30;2.30;;;12.50;99.90;;;;;;6166214;28;20447;-68
2022/09/16 06:07:10;;;;;;;2.28;2.28;;;12.60;99.90;;;;;;6165934;28;20262;-68
2022/09/16 06:10:15;;;;;;;2.28;1.90;;;12.70;99.90;;;;;;6160261;28;20479;-68
2022/09/16 06:13:21;;;;;;;2.00;1.90;;;12.70;99.90;;;;;;6142817;29;20247;-68
2022/09/16 06:16:26;;;;;;;1.55;1.55;;;12.50;99.90;;;;;;6143176;29;20208;-67
2022/09/16 06:19:30;;;;;;;1.92;1.70;;;12.50;99.90;;;;;;6142682;29;20232;-68
2022/09/16 06:22:35;;;;;;;1.80;1.80;;;12.60;99.90;;;;;;6142726;29;20388;-68
2022/09/16 06:25:40;;;;;;;1.80;1.70;;;12.60;99.90;;;;;;6142320;29;20256;-68
2022/09/16 06:28:46;;;;;;;1.33;1.33;;;12.60;99.90;;;;;;6142306;29;20251;-68
2022/09/16 06:31:50;;;;;;;1.60;1.60;;;12.60;99.90;;;;;;6142673;29;20255;-67
2022/09/16 06:34:54;;;;;;;1.85;1.38;;;12.70;99.90;;;;;;6141845;29;20254;-67
2022/09/16 06:37:59;;;;;;;1.60;1.60;;;12.70;99.90;;;;;;6142060;29;20263;-67
2022/09/16 06:41:05;;;;;;;2.05;1.40;;;12.60;99.90;;;;;;6142193;29;20259;-67
2022/09/16 06:44:12;;;;;;;1.60;1.50;;;12.70;99.90;;;;;;6141843;29;20542;-67
2022/09/16 06:47:17;;;;;;;1.20;1.20;;;12.70;99.90;;;;;;6141495;29;20252;-67
2022/09/16 06:50:21;;;;;;;2.42;2.13;;;12.80;99.90;;;;;;6142434;29;20259;-67
2022/09/16 06:53:26;;;;;;;1.50;1.50;;;12.90;99.90;;;;;;6141847;29;20235;-67
2022/09/16 06:56:30;;;;;;;1.40;1.33;;;12.90;99.90;;;;;;6140874;29;20283;-67
2022/09/16 06:59:36;;;;;;;1.30;1.30;;;13.00;99.90;;;;;;6141664;29;20231;-67
2022/09/16 07:02:40;;;;;;;1.45;1.38;;;13.00;99.90;;;;;;6140356;29;20243;-67
2022/09/16 07:05:55;;;;;;;1.40;1.40;;;13.10;99.90;;;;;;6141698;29;20253;-67
2022/09/16 07:08:59;;;;;;;2.45;1.25;;;13.10;99.90;;;;;;6141107;29;20378;-67
2022/09/16 07:12:04;;;;;;;1.30;1.30;;;13.10;99.90;;;;;;6161640;28;20393;-68
2022/09/16 07:15:11;;;;;;;5.18;1.30;;;13.10;99.90;;;;;;6165742;28;20263;-68
2022/09/16 07:18:15;;;;;;;1.17;1.17;;;13.10;99.90;;;;;;6164983;28;20230;-68
2022/09/16 07:21:21;;;;;;;1.25;1.20;;;13.20;99.90;;;;;;6165580;29;20259;-67
2022/09/16 07:24:26;;;;;;;5.20;1.30;;;13.30;99.90;;;;;;6164906;28;20322;-67
2022/09/16 07:27:31;;;;;;;1.15;1.15;;;13.30;99.90;;;;;;6164603;28;20231;-67
2022/09/16 07:30:36;;;;;;;1.10;1.08;;;13.40;99.90;;;;;;6165353;29;20212;-68
2022/09/16 07:33:43;;;;;;;7.70;2.80;;;13.30;99.90;;;;;;6164808;28;20231;-67
2022/09/16 07:36:48;;;;;;;1.63;1.55;;;13.40;99.90;;;;;;6165271;28;20263;-67
2022/09/16 07:39:53;;;;;;;1.50;1.40;;;13.30;99.90;;;;;;6164349;28;20349;-67
2022/09/16 07:42:58;;;;;;;3.30;1.40;;;13.20;99.90;;;;;;6164744;28;20231;-67
2022/09/16 07:46:04;;;;;;;1.40;1.20;;;13.20;99.90;;;;;;6163829;28;20529;-67
2022/09/16 07:49:11;;;;;;;1.30;1.20;;;13.30;99.90;;;;;;6164572;28;20246;-67
2022/09/16 07:52:16;;;;;;;1.75;1.52;;;13.40;99.90;;;;;;6164408;28;20188;-67
2022/09/16 07:55:20;;;;;;;2.63;1.45;;;13.50;99.90;;;;;;6164913;29;20221;-68
2022/09/16 07:58:24;;;;;;;3.03;1.30;;;13.50;99.90;;;;;;6164355;28;20237;-68
2022/09/16 08:01:30;;;;;;;1.52;1.52;;;13.50;99.90;;;;;;6164893;29;20191;-68
2022/09/16 08:04:37;;;;;;;1.23;1.23;;;13.70;99.90;;;;;;6164235;28;20247;-68
2022/09/16 08:07:42;;;;;;;1.02;1.02;;;13.70;99.90;;;;;;6163626;28;20239;-68
2022/09/16 08:10:54;;;;;;;1.40;1.10;;;13.80;99.90;;;;;;6153466;29;20508;-67
2022/09/16 08:13:59;;;;;;;3.40;1.30;;;13.80;99.90;;;;;;6139618;29;20327;-67
2022/09/16 08:17:06;;;;;;;6.75;1.90;;;13.80;99.90;;;;;;6140046;29;20267;-67
2022/09/16 08:20:10;;;;;;;19.10;13.43;;;14.00;99.90;;;;;;6140680;29;20219;-67
2022/09/16 08:23:15;;;;;;;9.88;8.88;;;14.00;99.90;;;;;;6140075;29;20232;-67
2022/09/16 08:26:21;;;;;;;8.57;6.25;;;13.90;99.90;;;;;;6140007;29;20216;-67
2022/09/16 08:29:26;;;;;;;3.70;3.38;;;13.80;99.90;;;;;;6140037;29;20334;-67
2022/09/16 08:32:31;;;;;;;2.08;2.00;;;13.80;99.90;;;;;;6140005;29;20235;-67
2022/09/16 08:35:36;;;;;;;1.73;1.73;;;13.90;99.90;;;;;;6140076;29;20542;-69
2022/09/16 08:38:40;;;;;;;1.63;1.58;;;14.00;99.90;;;;;;6139578;29;20549;-67
2022/09/16 08:42:31;;;;;;;1.67;1.60;;;14.10;99.90;;;;;;6140050;29;20259;-67
2022/09/16 08:45:42;;;;;;;1.40;1.40;;;14.10;99.90;;;;;;6045164;29;20305;-67
2022/09/16 08:48:56;;;;;;;1.10;1.10;;;14.00;99.90;;;;;;6139900;28;20534;-67
2022/09/16 08:52:05;;;;;;;1.80;1.20;;;13.90;99.90;;;;;;6139610;29;20211;-67
2022/09/16 08:55:14;;;;;;;1.25;1.25;;;13.90;99.90;;;;;;6140108;29;20216;-67
2022/09/16 08:58:21;;;;;;;1.45;1.45;;;14.00;99.90;;;;;;6141800;29;20232;-67
2022/09/16 09:01:31;;;;;;;1.27;1.20;;;14.10;99.90;;;;;;6144769;29;20188;-67
2022/09/16 09:04:37;;;;;;;1.25;1.15;;;14.10;99.90;;;;;;6144307;29;20235;-67
2022/09/16 09:07:54;;;;;;;3.33;3.22;;;14.20;99.90;;;;;;6143878;29;20247;-67
2022/09/16 09:11:03;;;;;;;2.05;1.70;;;14.10;99.90;;;;;;6156614;29;20198;-67
2022/09/16 09:14:30;;;;;;;1.10;1.10;;;14.20;99.90;;;;;;6167810;28;20306;-67
2022/09/16 09:17:47;;;;;;;2.10;1.58;;;14.30;99.90;;;;;;6167992;28;20236;-67
2022/09/16 09:21:03;;;;;;;2.20;1.40;;;14.40;99.90;;;;;;6167991;28;20188;-67
2022/09/16 09:24:28;;;;;;;1.65;1.65;;;14.30;99.90;;;;;;6167814;28;20235;-67
2022/09/16 09:27:41;;;;;;;1.13;1.08;;;14.20;99.90;;;;;;6167706;28;20235;-67
2022/09/16 09:30:59;;;;;;;1.20;1.20;;;14.20;99.90;;;;;;6168037;29;20294;-68
2022/09/16 09:34:15;;;;;;;2.78;1.35;;;14.30;99.90;;;;;;6167373;28;20251;-68
2022/09/16 09:37:40;;;;;;;1.05;1.05;;;14.40;99.90;;;;;;6167399;28;20219;-68
2022/09/16 09:40:49;;;;;;;2.38;2.38;;;14.50;99.90;;;;;;6167447;29;20188;-68
2022/09/16 09:43:58;;;;;;;1.50;1.50;;;14.50;99.90;;;;;;6167261;28;20383;-68
2022/09/16 09:47:10;;;;;;;7.90;6.20;;;14.50;99.90;;;;;;6166691;28;20379;-68
2022/09/16 09:50:19;;;;;;;1.30;1.30;;;14.50;99.90;;;;;;6167647;29;20195;-67
2022/09/16 09:53:28;;;;;;;3.70;1.17;;;14.40;99.90;;;;;;6167018;28;20265;-68
2022/09/16 09:56:35;;;;;;;1.58;1.20;;;14.50;99.90;;;;;;6167143;29;20532;-68
2022/09/16 09:59:47;;;;;;;1.00;1.00;;;14.70;99.90;;;;;;6166919;28;20231;-67
2022/09/16 10:02:51;;;;;;;2.00;2.00;;;14.70;99.90;;;;;;6166669;28;20342;-68
2022/09/16 10:05:56;;;;;;;2.17;2.15;;;14.90;99.90;;;;;;6165837;29;20290;-68
2022/09/16 10:09:02;;;;;;;1.15;1.15;;;14.80;99.90;;;;;;6165969;28;20302;-67
2022/09/16 10:12:07;;;;;;;3.03;2.83;;;14.70;99.90;;;;;;6145065;29;20239;-68
2022/09/16 10:15:22;;;;;;;1.80;1.80;;;14.70;99.90;;;;;;6143321;29;20204;-68
2022/09/16 10:18:30;;;;;;;1.30;1.20;;;14.90;99.90;;;;;;6142446;29;20249;-68
2022/09/16 10:21:44;;;;;;;1.17;1.17;;;15.10;99.90;;;;;;6143180;29;20260;-68
2022/09/16 10:24:56;;;;;;;1.05;1.05;;;15.00;99.90;;;;;;6141058;29;20343;-68
2022/09/16 10:28:04;;;;;;;1.27;1.27;;;15.10;99.90;;;;;;6142130;29;20243;-68
2022/09/16 10:31:10;;;;;;;1.20;1.20;;;15.10;99.90;;;;;;6142940;29;20188;-67
2022/09/16 10:34:21;;;;;;;1.38;1.30;;;15.30;99.90;;;;;;6142140;29;20569;-67
2022/09/16 10:37:26;;;;;;;1.27;1.27;;;15.20;99.90;;;;;;6142254;29;20241;-67
2022/09/16 10:40:32;;;;;;;1.75;1.65;;;15.10;99.90;;;;;;6142323;29;20195;-67
2022/09/16 10:43:39;;;;;;;1.45;1.40;;;15.10;99.90;;;;;;6142331;29;20283;-67
2022/09/16 10:46:52;;;;;;;1.35;1.27;;;15.20;99.90;;;;;;6142096;29;20242;-68
2022/09/16 10:50:00;;;;;;;1.00;1.00;;;15.10;99.90;;;;;;6141960;29;20252;-67
2022/09/16 10:53:26;;;;;;;1.70;1.10;;;15.30;99.90;;;;;;6141490;29;20244;-67
2022/09/16 10:56:34;;;;;;;1.10;1.10;;;15.30;99.90;;;;;;6142222;29;20199;-67
2022/09/16 10:59:38;;;;;;;1.60;1.48;;;15.40;99.90;;;;;;6141819;29;20247;-68
2022/09/16 11:03:29;;;;;;;1.67;1.20;;;15.50;99.90;;;;;;6141721;29;20294;-68
2022/09/16 11:06:48;;;;;;;1.55;1.20;;;15.40;99.90;;;;;;6140913;29;20246;-67
2022/09/16 11:10:00;;;;;;;1.75;1.10;;;15.60;99.90;;;;;;6144721;29;20615;-67
2022/09/16 11:13:26;;;;;;;1.35;1.25;;;15.70;99.90;;;;;;6165238;28;20254;-68
2022/09/16 11:16:57;;;;;;;1.20;1.20;;;15.60;99.90;;;;;;6165446;28;20258;-68
2022/09/16 11:20:36;;;;;;;4.18;3.05;;;15.90;99.90;;;;;;6165379;29;20238;-68
2022/09/16 11:24:01;;;;;;;1.10;0.98;;;15.90;99.90;;;;;;6164408;28;20502;-68
2022/09/16 11:27:14;;;;;;;1.02;1.02;;;16.10;99.90;;;;;;6164701;28;20319;-67
2022/09/16 11:30:22;;;;;;;1.15;1.08;;;16.20;99.90;;;;;;6165446;29;20187;-68
2022/09/16 11:33:33;;;;;;;0.93;0.93;;;16.10;99.90;;;;;;6164915;28;20231;-68
2022/09/16 11:36:58;;;;;;;0.85;0.85;;;16.00;99.90;;;;;;6165371;29;20192;-67
2022/09/16 11:40:22;;;;;;;0.75;0.75;;;15.90;99.90;;;;;;6141119;29;20207;-67
2022/09/16 11:44:08;;;;;;;0.63;0.63;;;15.60;99.90;;;;;;6140964;29;20255;-67
2022/09/16 11:47:39;;;;;;;1.17;1.10;;;15.40;99.90;;;;;;6140353;29;20212;-67
2022/09/16 11:50:51;;;;;;;1.27;0.70;;;14.90;99.90;;;;;;6141193;29;20192;-68
2022/09/16 11:54:13;;;;;;;0.70;0.70;;;14.70;99.90;;;;;;6140355;29;20256;-68
2022/09/16 11:57:21;;;;;;;2.13;1.13;;;14.50;99.90;;;;;;6140063;29;20192;-68
2022/09/16 12:00:26;;;;;;;0.90;0.90;;;14.50;99.90;;;;;;6141252;29;20223;-68
2022/09/16 12:03:37;;;;;;;1.00;1.00;;;14.40;99.90;;;;;;6140352;29;20258;-68
2022/09/16 12:06:54;;;;;;;1.10;1.10;;;14.40;99.90;;;;;;6140263;29;20263;-68
2022/09/16 12:10:04;;;;;;;1.60;1.50;;;14.40;99.90;;;;;;6136324;29;20224;-68
2022/09/16 12:13:14;;;;;;;1.40;1.40;;;14.40;99.90;;;;;;6125410;29;20232;-68
2022/09/16 12:16:24;;;;;;;1.33;1.27;;;14.50;99.90;;;;;;6140743;29;20195;-67
2022/09/16 12:19:37;;;;;;;1.85;1.20;;;14.40;99.90;;;;;;6140313;28;20250;-67
2022/09/16 12:22:47;;;;;;;1.08;1.08;;;14.50;99.90;;;;;;6140368;29;20299;-67
2022/09/16 12:26:04;;;;;;;1.10;1.10;;;14.60;99.90;;;;;;6140607;29;20255;-67
2022/09/16 12:29:15;;;;;;;2.20;2.10;;;14.70;99.90;;;;;;6140150;29;20235;-68
2022/09/16 12:32:34;;;;;;;2.17;2.00;;;14.80;99.90;;;;;;6140131;29;20200;-67
2022/09/16 12:35:44;;;;;;;1.70;1.55;;;14.80;99.90;;;;;;6145482;29;20188;-67
2022/09/16 12:38:48;;;;;;;1.20;1.20;;;14.60;99.90;;;;;;6144931;29;20236;-67
2022/09/16 12:42:22;;;;;;;2.25;1.60;;;14.70;99.90;;;;;;6144776;29;20383;-67
2022/09/16 12:46:20;;;;;;;1.48;1.42;;;14.60;99.90;;;;;;6144505;29;20502;-67
2022/09/16 12:50:28;;;;;;;1.13;1.10;;;14.60;99.90;;;;;;6113417;29;20459;-67
2022/09/16 12:54:08;;;;;;;2.10;1.40;;;14.30;99.90;;;;;;6098963;29;20231;-67
2022/09/16 12:57:33;;;;;;;0.90;0.90;;;14.50;99.90;;;;;;6144624;29;20192;-67
2022/09/16 13:00:41;;;;;;;0.93;0.93;;;14.50;99.90;;;;;;6144471;29;20531;-67
2022/09/16 13:03:49;;;;;;;0.82;0.82;;;14.50;99.90;;;;;;6144393;29;20242;-67
2022/09/16 13:06:57;;;;;;;0.85;0.80;;;14.60;99.90;;;;;;6144643;29;20250;-67
2022/09/16 13:10:06;;;;;;;0.70;0.70;;;14.60;99.90;;;;;;6125117;29;20315;-68
2022/09/16 13:13:20;;;;;;;1.50;0.90;;;14.50;99.90;;;;;;6153361;28;20235;-67
2022/09/16 13:16:33;;;;;;;0.90;0.90;;;14.50;99.90;;;;;;6168377;29;20268;-68
2022/09/16 13:19:45;;;;;;;0.80;0.80;;;14.50;99.90;;;;;;6146823;28;20423;-68
2022/09/16 13:23:02;;;;;;;0.70;0.70;;;14.50;99.90;;;;;;6149087;28;20537;-68
2022/09/16 13:26:09;;;;;;;0.90;0.90;;;14.40;99.90;;;;;;6167859;29;20192;-68
2022/09/16 13:29:42;;;;;;;1.17;0.90;;;14.50;99.90;;;;;;6149998;28;20235;-69
2022/09/16 13:33:03;;;;;;;0.80;0.80;;;14.50;99.90;;;;;;6149602;28;20593;-68
2022/09/16 13:36:32;;;;;;;1.85;0.80;;;14.40;99.90;;;;;;6168096;29;20282;-68
2022/09/16 13:39:37;;;;;;;0.70;0.70;;;14.40;99.90;;;;;;6144993;28;20247;-68
2022/09/16 13:42:43;;;;;;;1.67;0.90;;;14.20;99.90;;;;;;6149005;28;20309;-68
2022/09/16 13:45:48;;;;;;;1.20;0.77;;;14.20;99.90;;;;;;6374790;23;20194;-70
2022/09/16 13:48:58;;;;;;;2.08;0.63;;;14.20;99.90;;;;;;6131106;29;20236;-68
2022/09/16 13:52:11;;;;;;;0.70;0.70;;;14.10;99.90;;;;;;6545106;23;20267;-67
2022/09/16 13:55:22;;;;;;;0.70;0.70;;;14.20;99.90;;;;;;6142523;29;20369;-67
2022/09/16 13:58:31;;;;;;;1.35;1.35;;;14.30;99.90;;;;;;6120441;29;20271;-67
2022/09/16 14:01:39;;;;;;;0.90;0.90;;;14.30;99.90;;;;;;6133415;29;20208;-67
2022/09/16 14:05:18;;;;;;;0.80;0.80;;;14.50;99.90;;;;;;6119525;29;20301;-67
2022/09/16 14:08:30;;;;;;;0.90;0.90;;;15.30;99.90;;;;;;6118581;29;20260;-67
2022/09/16 14:11:38;;;;;;;3.08;0.70;;;15.00;99.90;;;;;;6096230;29;20189;-67
2022/09/16 14:14:45;;;;;;;0.77;0.75;;;15.00;99.90;;;;;;6095623;29;20590;-68
2022/09/16 14:17:57;;;;;;;0.90;0.90;;;14.90;99.90;;;;;;6095810;29;20304;-67
2022/09/16 14:21:03;;;;;;;1.00;1.00;;;14.90;99.90;;;;;;6095971;29;20256;-67
2022/09/16 14:24:17;;;;;;;0.90;0.90;;;14.80;99.90;;;;;;6095466;29;20233;-67
2022/09/16 14:27:28;;;;;;;1.08;1.08;;;14.70;99.90;;;;;;6110145;29;20490;-67
2022/09/16 14:30:33;;;;;;;1.40;1.40;;;14.50;99.90;;;;;;6119471;29;20260;-67
2022/09/16 14:33:43;;;;;;;1.20;1.10;;;14.50;99.90;;;;;;6118934;29;20299;-68
2022/09/16 14:36:48;;;;;;;1.30;1.30;;;14.50;99.90;;;;;;6119304;29;20260;-67
2022/09/16 14:39:55;;;;;;;3.10;3.00;;;14.50;99.90;;;;;;6118728;29;20240;-67
2022/09/16 14:43:04;;;;;;;2.05;2.05;;;14.30;99.90;;;;;;6118795;29;20283;-67
2022/09/16 14:46:11;;;;;;;1.20;1.20;;;14.40;99.90;;;;;;6118636;29;20227;-67
2022/09/16 14:49:17;;;;;;;1.17;1.17;;;14.40;99.90;;;;;;6118084;29;20232;-68
2022/09/16 14:52:23;;;;;;;1.48;1.30;;;14.50;99.90;;;;;;6118253;29;20353;-68
2022/09/16 14:55:30;;;;;;;1.27;1.27;;;14.40;99.90;;;;;;6118202;29;20420;-67
2022/09/16 14:58:36;;;;;;;1.10;1.10;;;14.40;99.90;;;;;;6118254;29;20236;-68
2022/09/16 15:01:42;;;;;;;0.90;0.90;;;14.50;99.90;;;;;;6102007;29;20194;-68
2022/09/16 15:04:51;;;;;;;0.70;0.70;;;14.40;99.90;;;;;;6094689;29;20296;-69
2022/09/16 15:08:04;;;;;;;1.15;1.15;;;14.30;99.90;;;;;;6094379;29;20248;-67
2022/09/16 15:11:20;;;;;;;1.52;1.50;;;14.40;99.90;;;;;;6095098;29;20241;-69
2022/09/16 15:14:44;;;;;;;1.05;1.05;;;14.40;99.90;;;;;;6094456;29;20240;-68
2022/09/16 15:17:56;;;;;;;1.73;1.63;;;14.40;99.90;;;;;;6094415;29;20253;-69
2022/09/16 15:21:07;;;;;;;1.75;1.30;;;14.50;99.90;;;;;;6094818;29;20260;-68
2022/09/16 15:24:20;;;;;;;1.08;1.08;;;14.60;99.90;;;;;;6094162;29;20233;-68
2022/09/16 15:27:27;;;;;;;1.13;1.13;;;14.60;99.90;;;;;;6093739;28;20554;-68
2022/09/16 15:30:32;;;;;;;1.23;1.23;;;14.60;99.90;;;;;;6094164;29;20540;-67
2022/09/16 15:33:41;;;;;;;1.38;1.38;;;14.50;99.90;;;;;;6093895;29;20229;-67
2022/09/16 15:36:47;;;;;;;1.48;1.48;;;14.50;99.90;;;;;;6094356;29;20189;-67
2022/09/16 15:39:51;;;;;;;1.30;1.30;;;14.40;99.90;;;;;;6094033;29;20276;-67
2022/09/16 15:43:16;;;;;;;2.25;1.30;;;14.50;99.90;;;;;;6093951;29;20232;-67
2022/09/16 15:46:22;;;;;;;2.20;2.10;;;14.40;99.90;;;;;;6094383;29;20277;-67
2022/09/16 15:49:31;;;;;;;1.50;1.50;;;14.40;99.90;;;;;;6093415;29;20245;-67
2022/09/16 15:52:54;;;;;;;1.50;1.50;;;14.40;99.90;;;;;;6093268;29;20307;-67
2022/09/16 15:56:03;;;;;;;1.52;1.48;;;14.40;99.90;;;;;;6093729;29;20441;-68
2022/09/16 15:59:23;;;;;;;1.40;1.30;;;14.40;99.90;;;;;;6093562;29;20237;-69
2022/09/16 16:02:33;;;;;;;1.75;1.20;;;14.30;99.90;;;;;;6115621;29;20480;-67
2022/09/16 16:05:51;;;;;;;1.50;1.50;;;14.30;99.90;;;;;;6116877;29;20189;-67
2022/09/16 16:08:56;;;;;;;1.60;1.60;;;14.30;99.90;;;;;;6116481;29;20240;-70
2022/09/16 16:12:03;;;;;;;1.50;1.50;;;14.10;99.90;;;;;;6116285;29;20263;-69
2022/09/16 16:15:08;;;;;;;2.05;1.95;;;13.90;99.90;;;;;;6116689;29;20417;-67
2022/09/16 16:18:14;;;;;;;1.50;1.40;;;13.90;99.90;;;;;;6116527;29;20307;-69
2022/09/16 16:21:20;;;;;;;1.30;1.30;;;13.80;99.90;;;;;;6117222;29;20196;-68
2022/09/16 16:24:24;;;;;;;2.00;1.90;;;13.80;99.90;;;;;;6116539;29;20523;-69
2022/09/16 16:27:28;;;;;;;1.40;1.40;;;13.80;99.90;;;;;;6116132;28;20578;-69
2022/09/16 16:30:33;;;;;;;1.70;1.70;;;13.70;99.90;;;;;;6116596;29;20453;-70
2022/09/16 16:33:38;;;;;;;1.73;1.60;;;13.70;99.90;;;;;;6116176;29;20283;-68